Time;durP1;ratioP1;P1;durP2;ratioP2;P2;SDS_P1;SDS_P2;PMS_P1;PMS_P2;Temp;Humidity;BMP_temperature;BMP_pressure;BME280_temperature;BME280_humidity;BME280_pressure;Samples;Min_cycle;Max_cycle;Signal;HPM_P1;HPM_P2
2022/05/26 00:01:30;;;;;;;0.40;0.30;;;;;;;19.74;100.00;95601.66;5093605;28;20467;-59
2022/05/26 00:03:58;;;;;;;9.27;1.37;;;;;;;20.23;100.00;95595.69;5093537;28;20424;-59
2022/05/26 00:06:29;;;;;;;0.40;0.20;;;;;;;20.28;100.00;95595.50;5093488;28;20424;-59
2022/05/26 00:08:57;;;;;;;0.40;0.30;;;;;;;20.47;100.00;95603.16;5093241;28;20798;-59
2022/05/26 00:11:28;;;;;;;0.80;0.80;;;;;;;19.56;100.00;95598.19;5093809;28;20448;-59
2022/05/26 00:13:58;;;;;;;3.47;0.50;;;;;;;19.58;100.00;95602.16;5093753;28;20440;-59
2022/05/26 00:16:27;;;;;;;3.37;0.50;;;;;;;18.74;100.00;95464.06;5093384;28;20866;-60
2022/05/26 00:18:55;;;;;;;1.30;1.10;;;;;;;19.70;100.00;95601.50;5093437;28;20973;-59
2022/05/26 00:21:23;;;;;;;0.50;0.47;;;;;;;19.62;100.00;95591.56;5093135;28;20456;-60
2022/05/26 00:23:56;;;;;;;0.60;0.50;;;;;;;19.72;100.00;95591.22;5093249;28;20424;-59
2022/05/26 00:26:25;;;;;;;0.50;0.40;;;;;;;19.97;100.00;95581.50;5093092;28;20872;-60
2022/05/26 00:28:53;;;;;;;1.13;1.07;;;;;;;20.10;100.00;95583.19;5093117;28;20933;-60
2022/05/26 00:31:22;;;;;;;0.60;0.33;;;;;;;20.21;100.00;95589.81;5093218;28;20505;-60
2022/05/26 00:33:51;;;;;;;0.50;0.33;;;;;;;20.25;100.00;95583.47;5093014;28;20451;-59
2022/05/26 00:36:37;;;;;;;0.50;0.40;;;;;;;20.26;100.00;95584.28;5092824;28;20459;-60
2022/05/26 00:39:10;;;;;;;0.70;0.70;;;;;;;20.19;100.00;95597.41;5093080;28;20428;-60
2022/05/26 00:41:40;;;;;;;0.40;0.30;;;;;;;19.89;100.00;95601.94;5092838;28;20466;-60
2022/05/26 00:44:09;;;;;;;0.50;0.30;;;;;;;20.06;100.00;95601.09;5092681;28;20468;-60
2022/05/26 00:46:45;;;;;;;0.50;0.40;;;;;;;20.19;100.00;95600.09;5092635;28;20456;-60
2022/05/26 00:49:22;;;;;;;0.40;0.30;;;;;;;20.03;100.00;95591.78;5092836;28;20479;-60
2022/05/26 00:51:51;;;;;;;0.40;0.30;;;;;;;19.90;100.00;95576.63;5092543;28;20424;-60
2022/05/26 00:54:25;;;;;;;0.50;0.50;;;;;;;20.12;100.00;95605.97;5092491;28;20432;-60
2022/05/26 00:57:00;;;;;;;0.50;0.40;;;;;;;20.11;100.00;95603.63;5091720;28;20515;-60
2022/05/26 00:59:41;;;;;;;0.90;0.90;;;;;;;20.11;100.00;95590.16;5092826;28;20851;-60
2022/05/26 01:02:11;;;;;;;0.40;0.30;;;;;;;20.05;100.00;95603.00;5092855;28;20423;-60
2022/05/26 01:04:43;;;;;;;6.10;0.60;;;;;;;18.84;100.00;95418.91;5092414;28;20429;-60
2022/05/26 01:07:16;;;;;;;4.00;0.47;;;;;;;19.99;100.00;95587.34;5092684;28;20777;-60
2022/05/26 01:09:47;;;;;;;0.67;0.67;;;;;;;19.99;100.00;95595.41;5091701;28;20464;-60
2022/05/26 01:12:15;;;;;;;0.70;0.40;;;;;;;19.77;100.00;95599.13;5092326;28;20489;-60
2022/05/26 01:14:48;;;;;;;0.50;0.40;;;;;;;19.87;100.00;95603.38;5092217;28;20471;-60
2022/05/26 01:17:28;;;;;;;1.17;0.40;;;;;;;19.91;100.00;95598.94;5091197;28;20973;-60
2022/05/26 01:20:18;;;;;;;0.40;0.20;;;;;;;19.76;100.00;95602.91;5092568;28;20520;-60
2022/05/26 01:23:27;;;;;;;0.53;0.50;;;;;;;19.79;100.00;95586.13;5091753;28;20420;-60
2022/05/26 01:26:44;;;;;;;0.50;0.50;;;;;;;19.79;100.00;95596.91;5103557;28;20454;-60
2022/05/26 01:29:44;;;;;;;0.60;0.30;;;;;;;19.84;100.00;95594.03;5091265;28;20530;-60
2022/05/26 01:32:25;;;;;;;0.40;0.20;;;;;;;19.72;100.00;95599.28;5091983;28;20420;-60
2022/05/26 01:35:01;;;;;;;0.40;0.30;;;;;;;19.52;100.00;95578.44;5091906;28;20468;-60
2022/05/26 01:37:40;;;;;;;0.40;0.20;;;;;;;19.28;100.00;95548.56;5092048;28;20424;-60
2022/05/26 01:40:15;;;;;;;0.60;0.60;;;;;;;18.27;100.00;95387.94;5091930;28;20464;-60
2022/05/26 01:43:02;;;;;;;0.40;0.27;;;;;;;19.61;100.00;95608.78;5091961;28;20460;-61
2022/05/26 01:45:41;;;;;;;0.50;0.30;;;;;;;19.60;100.00;95599.97;5092113;28;20428;-60
2022/05/26 01:48:16;;;;;;;0.40;0.20;;;;;;;19.56;100.00;95606.25;5092138;28;20554;-60
2022/05/26 01:50:48;;;;;;;0.40;0.30;;;;;;;19.56;100.00;95596.31;5092157;28;20887;-60
2022/05/26 01:53:26;;;;;;;1.77;0.47;;;;;;;19.53;100.00;95574.66;5092033;28;20913;-61
2022/05/26 01:56:02;;;;;;;0.50;0.50;;;;;;;19.39;100.00;95576.72;5091765;28;20979;-60
2022/05/26 01:58:35;;;;;;;1.07;0.97;;;;;;;19.52;100.00;95590.00;5091841;28;20765;-60
2022/05/26 02:01:09;;;;;;;0.50;0.50;;;;;;;18.97;100.00;95517.28;5091879;28;20494;-60
2022/05/26 02:03:41;;;;;;;0.60;0.40;;;;;;;19.34;100.00;95568.78;5092059;28;20510;-60
2022/05/26 02:06:17;;;;;;;0.70;0.30;;;;;;;19.20;100.00;95535.94;5091956;28;20427;-61
2022/05/26 02:08:50;;;;;;;0.40;0.20;;;;;;;18.86;100.00;95502.63;5094039;28;20472;-61
2022/05/26 02:11:21;;;;;;;0.40;0.30;;;;;;;19.46;100.00;95590.47;5096046;28;20540;-61
2022/05/26 02:13:54;;;;;;;0.60;0.53;;;;;;;19.25;100.00;95570.72;5095977;28;20535;-61
2022/05/26 02:16:29;;;;;;;0.50;0.30;;;;;;;19.38;100.00;95594.75;5096014;28;20518;-61
2022/05/26 02:19:04;;;;;;;0.50;0.30;;;;;;;19.20;100.00;95603.13;5095500;28;20543;-61
2022/05/26 02:21:38;;;;;;;7.03;0.50;;;;;;;19.29;100.00;95603.91;5095795;28;20491;-61
2022/05/26 02:24:11;;;;;;;0.50;0.40;;;;;;;19.22;100.00;95608.97;5096040;28;20432;-61
2022/05/26 02:26:39;;;;;;;0.50;0.43;;;;;;;19.08;100.00;95565.31;5094832;28;20421;-61
2022/05/26 02:31:54;;;;;;;0.50;0.30;;;;;;;19.02;100.00;95562.03;5095406;28;20501;-61
2022/05/26 02:34:25;;;;;;;0.60;0.33;;;;;;;18.38;100.00;95454.41;5095280;28;20486;-60
2022/05/26 02:36:57;;;;;;;0.60;0.50;;;;;;;18.74;100.00;95515.88;5095268;28;20441;-60
2022/05/26 02:39:26;;;;;;;0.80;0.40;;;;;;;18.06;100.00;95436.06;5095352;28;20420;-60
2022/05/26 02:41:57;;;;;;;0.40;0.30;;;;;;;19.03;100.00;95590.44;5095143;28;20432;-60
2022/05/26 02:44:27;;;;;;;7.10;0.70;;;;;;;19.15;100.00;95604.03;5095332;28;20557;-61
2022/05/26 02:47:14;;;;;;;0.40;0.30;;;;;;;19.19;100.00;95596.94;5095211;28;20460;-60
2022/05/26 02:50:04;;;;;;;0.63;0.40;;;;;;;19.12;100.00;95587.78;5094917;28;20540;-60
2022/05/26 02:52:41;;;;;;;0.40;0.30;;;;;;;18.89;100.00;95539.59;5095276;28;20455;-56
2022/05/26 02:55:18;;;;;;;0.50;0.47;;;;;;;19.42;100.00;95622.59;5095003;28;20552;-56
2022/05/26 02:57:59;;;;;;;0.90;0.50;;;;;;;19.56;100.00;95606.25;5094234;28;20511;-56
2022/05/26 03:00:33;;;;;;;0.50;0.30;;;;;;;19.61;100.00;95633.78;5092749;28;20454;-55
2022/05/26 03:03:15;;;;;;;14.37;0.70;;;;;;;19.26;100.00;95585.72;5094179;28;20866;-55
2022/05/26 03:05:51;;;;;;;0.50;0.30;;;;;;;19.36;100.00;95578.13;5095101;28;20416;-55
2022/05/26 03:08:23;;;;;;;8.23;0.50;;;;;;;19.89;100.00;95639.59;5094098;28;20424;-55
2022/05/26 03:10:54;;;;;;;0.40;0.30;;;;;;;19.92;100.00;95644.34;5092540;28;20432;-56
2022/05/26 03:13:23;;;;;;;0.43;0.30;;;;;;;19.94;100.00;95642.13;5092785;28;20451;-55
2022/05/26 03:15:52;;;;;;;0.40;0.30;;;;;;;20.00;100.00;95640.06;5092721;28;20420;-55
2022/05/26 03:18:21;;;;;;;0.67;0.50;;;;;;;19.87;100.00;95644.50;5092054;28;20472;-55
2022/05/26 03:20:51;;;;;;;0.77;0.33;;;;;;;19.82;100.00;95631.22;5091587;28;20428;-55
2022/05/26 03:23:19;;;;;;;0.97;0.60;;;;;;;19.91;100.00;95642.75;5093424;28;20540;-56
2022/05/26 03:25:48;;;;;;;0.77;0.77;;;;;;;19.17;100.00;95593.00;5094257;28;20464;-55
2022/05/26 03:28:16;;;;;;;0.40;0.30;;;;;;;19.30;100.00;95648.50;5094634;28;20485;-55
2022/05/26 03:30:45;;;;;;;0.50;0.30;;;;;;;19.69;100.00;95648.34;5094056;28;20480;-55
2022/05/26 03:33:13;;;;;;;0.70;0.70;;;;;;;19.70;100.00;95641.84;5094015;28;20439;-55
2022/05/26 03:41:11;;;;;;;0.60;0.37;;;;;;;19.89;100.00;95650.34;5093814;28;20515;-55
2022/05/26 03:43:42;;;;;;;1.53;1.07;;;;;;;19.39;100.00;95641.25;5094276;28;20912;-55
2022/05/26 03:46:11;;;;;;;0.50;0.50;;;;;;;19.79;100.00;95633.75;5094066;28;20428;-55
2022/05/26 03:48:40;;;;;;;0.50;0.40;;;;;;;20.01;100.00;95645.09;5094170;28;20413;-55
2022/05/26 03:51:09;;;;;;;1.37;0.40;;;;;;;20.14;100.00;95637.94;5093760;28;20987;-55
2022/05/26 03:53:39;;;;;;;3.07;1.20;;;;;;;20.23;100.00;95634.16;5093762;28;20468;-55
2022/05/26 03:56:07;;;;;;;0.60;0.33;;;;;;;20.35;100.00;95646.94;5093611;28;20464;-55
2022/05/26 03:58:36;;;;;;;0.40;0.30;;;;;;;20.45;100.00;95643.09;5093906;28;20429;-55
2022/05/26 04:01:06;;;;;;;0.47;0.33;;;;;;;20.47;100.00;95638.97;5093826;28;20417;-55
2022/05/26 04:03:35;;;;;;;0.50;0.40;;;;;;;20.53;100.00;95647.66;5093778;28;20792;-55
2022/05/26 04:06:04;;;;;;;0.50;0.30;;;;;;;20.32;100.00;95644.88;5093780;28;20428;-54
2022/05/26 04:08:32;;;;;;;0.60;0.40;;;;;;;20.23;100.00;95636.84;5093349;28;20440;-55
2022/05/26 04:11:02;;;;;;;1.07;0.70;;;;;;;20.46;100.00;95650.06;5093341;28;20498;-57
2022/05/26 04:13:31;;;;;;;0.50;0.47;;;;;;;20.16;100.00;95582.69;5093297;28;20515;-54
2022/05/26 04:15:59;;;;;;;0.40;0.30;;;;;;;20.60;100.00;95648.72;5093565;28;20433;-54
2022/05/26 04:18:28;;;;;;;0.60;0.40;;;;;;;20.61;100.00;95639.53;5093074;28;20468;-54
2022/05/26 04:21:04;;;;;;;0.50;0.40;;;;;;;20.30;100.00;95651.69;5093072;28;20429;-55
2022/05/26 04:23:33;;;;;;;0.50;0.40;;;;;;;20.33;100.00;95645.69;5092983;28;20540;-54
2022/05/26 04:26:03;;;;;;;0.60;0.43;;;;;;;20.39;100.00;95652.47;5093333;28;20925;-54
2022/05/26 04:28:31;;;;;;;11.20;3.90;;;;;;;20.38;100.00;95658.97;5092091;28;20436;-57
2022/05/26 04:31:00;;;;;;;1.50;0.40;;;;;;;20.54;100.00;95663.47;5092578;28;20491;-57
2022/05/26 04:33:29;;;;;;;0.50;0.40;;;;;;;19.96;100.00;95647.97;5092881;28;20928;-56
2022/05/26 04:35:57;;;;;;;0.63;0.60;;;;;;;19.91;100.00;95664.28;5092844;28;20515;-56
2022/05/26 04:38:26;;;;;;;0.60;0.60;;;;;;;19.77;100.00;95660.97;5093040;28;20466;-56
2022/05/26 04:40:58;;;;;;;0.40;0.30;;;;;;;20.00;100.00;95675.81;5092624;28;20468;-56
2022/05/26 04:43:30;;;;;;;0.50;0.30;;;;;;;19.95;100.00;95659.84;5092716;28;20492;-56
2022/05/26 04:45:59;;;;;;;0.87;0.50;;;;;;;20.06;100.00;95661.06;5093106;28;20428;-57
2022/05/26 04:48:28;;;;;;;0.53;0.53;;;;;;;20.05;100.00;95661.41;5092565;28;20890;-56
2022/05/26 04:50:56;;;;;;;0.50;0.40;;;;;;;20.34;100.00;95647.28;5092582;28;20492;-56
2022/05/26 04:53:24;;;;;;;0.40;0.30;;;;;;;20.16;100.00;95665.34;5092596;28;20924;-56
2022/05/26 04:55:55;;;;;;;0.40;0.30;;;;;;;20.04;100.00;95657.13;5092370;28;20471;-56
2022/05/26 04:58:23;;;;;;;0.57;0.50;;;;;;;19.72;100.00;95660.34;5091649;28;20924;-56
2022/05/26 05:00:53;;;;;;;0.80;0.50;;;;;;;19.81;100.00;95655.78;5092507;28;20432;-55
2022/05/26 05:03:21;;;;;;;0.70;0.50;;;;;;;19.62;100.00;95662.28;5092397;28;20788;-56
2022/05/26 05:05:50;;;;;;;0.60;0.40;;;;;;;19.97;100.00;95663.00;5092383;28;20425;-55
2022/05/26 05:08:18;;;;;;;0.50;0.30;;;;;;;20.23;100.00;95669.16;5092355;28;20471;-56
2022/05/26 05:10:46;;;;;;;0.40;0.20;;;;;;;20.54;100.00;95662.72;5092459;28;20456;-55
2022/05/26 05:13:15;;;;;;;0.50;0.40;;;;;;;20.71;100.00;95668.00;5092164;28;20931;-55
2022/05/26 05:15:47;;;;;;;1.00;0.47;;;;;;;20.84;100.00;95667.00;5092142;28;20429;-55
2022/05/26 05:18:23;;;;;;;0.90;0.60;;;;;;;21.07;100.00;95668.31;5091731;28;20472;-55
2022/05/26 05:20:53;;;;;;;0.70;0.70;;;;;;;20.92;100.00;95671.56;5092417;28;20810;-55
2022/05/26 05:23:22;;;;;;;0.67;0.67;;;;;;;21.04;100.00;95676.22;5091944;28;20472;-55
2022/05/26 05:25:55;;;;;;;0.87;0.87;;;;;;;21.08;100.00;95669.09;5092179;28;20436;-55
2022/05/26 05:28:28;;;;;;;0.70;0.70;;;;;;;21.49;100.00;95679.91;5092034;28;20523;-55
2022/05/26 05:31:00;;;;;;;0.53;0.53;;;;;;;21.55;100.00;95672.41;5092018;28;21048;-55
2022/05/26 05:33:33;;;;;;;0.97;0.97;;;;;;;21.80;100.00;95669.50;5092015;28;20435;-55
2022/05/26 05:36:06;;;;;;;0.60;0.50;;;;;;;21.93;100.00;95671.16;5092072;28;20417;-55
2022/05/26 05:38:38;;;;;;;0.60;0.50;;;;;;;22.12;100.00;95670.66;5092528;28;20545;-55
2022/05/26 05:41:07;;;;;;;0.40;0.33;;;;;;;22.39;100.00;95663.84;5091874;28;20515;-55
2022/05/26 05:43:37;;;;;;;0.60;0.60;;;;;;;22.61;100.00;95666.91;5091373;28;20416;-55
2022/05/26 05:46:06;;;;;;;0.80;0.80;;;;;;;22.77;100.00;95664.34;5091878;28;20943;-55
2022/05/26 05:48:36;;;;;;;0.97;0.80;;;;;;;22.98;100.00;95672.34;5091757;28;20826;-55
2022/05/26 05:51:04;;;;;;;0.70;0.70;;;;;;;22.82;100.00;95668.75;5091812;28;20464;-56
2022/05/26 05:53:33;;;;;;;0.60;0.60;;;;;;;22.94;100.00;95671.44;5091588;28;20432;-55
2022/05/26 05:56:01;;;;;;;0.97;0.97;;;;;;;22.88;100.00;95667.38;5091713;28;20928;-55
2022/05/26 05:58:29;;;;;;;1.13;1.00;;;;;;;22.96;100.00;95669.19;5091870;28;20482;-55
2022/05/26 06:00:58;;;;;;;2.57;1.17;;;;;;;22.73;100.00;95648.03;5091986;28;20437;-55
2022/05/26 06:03:32;;;;;;;0.63;0.63;;;;;;;22.93;100.00;95645.53;5091651;28;20468;-54
2022/05/26 06:06:02;;;;;;;0.67;0.53;;;;;;;23.25;100.00;95653.47;5090873;28;20511;-55
2022/05/26 06:08:32;;;;;;;1.67;1.53;;;;;;;23.42;100.00;95660.59;5091768;28;20466;-59
2022/05/26 06:11:00;;;;;;;2.50;1.23;;;;;;;23.23;100.00;95619.78;5092382;28;20907;-60
2022/05/26 06:13:29;;;;;;;1.20;1.20;;;;;;;23.36;100.00;95624.09;5093544;28;20452;-63
2022/05/26 06:15:57;;;;;;;0.87;0.50;;;;;;;23.95;100.00;95664.81;5091868;28;20460;-51
2022/05/26 06:18:25;;;;;;;0.60;0.60;;;;;;;24.13;100.00;95665.31;5091516;28;21003;-51
2022/05/26 06:21:03;;;;;;;0.90;0.90;;;;;;;24.40;100.00;95665.28;5091791;28;20464;-50
2022/05/26 06:23:32;;;;;;;2.30;0.80;;;;;;;24.22;100.00;95671.34;5091424;28;20435;-51
2022/05/26 06:26:00;;;;;;;0.70;0.63;;;;;;;24.39;100.00;95662.88;5091454;28;20467;-51
2022/05/26 06:31:14;;;;;;;0.60;0.60;;;;;;;24.89;100.00;95660.31;5091463;28;20533;-51
2022/05/26 06:39:15;;;;;;;0.63;0.60;;;;;;;25.03;100.00;95668.78;5091778;28;20557;-52
2022/05/26 06:44:29;;;;;;;2.50;1.30;;;;;;;24.55;100.00;95669.13;5091368;28;20490;-52
2022/05/26 06:46:57;;;;;;;1.17;0.93;;;;;;;24.62;100.00;95666.56;5091379;28;20511;-51
2022/05/26 06:49:26;;;;;;;1.27;0.50;;;;;;;25.07;100.00;95672.34;5091332;28;20454;-51
2022/05/26 06:51:55;;;;;;;1.37;1.37;;;;;;;25.15;100.00;95660.53;5091098;28;20512;-51
2022/05/26 06:54:24;;;;;;;0.93;0.93;;;;;;;25.74;100.00;95659.50;5091349;28;20471;-51
2022/05/26 06:56:52;;;;;;;0.70;0.47;;;;;;;26.35;100.00;95662.25;5093890;28;20480;-52
2022/05/26 06:59:20;;;;;;;0.83;0.83;;;;;;;26.67;92.79;95655.41;5095222;28;20428;-52
2022/05/26 07:01:49;;;;;;;0.63;0.63;;;;;;;27.02;87.76;95652.50;5094904;28;20527;-52
2022/05/26 07:04:17;;;;;;;1.70;1.70;;;;;;;27.51;83.44;95655.97;5094774;28;20464;-53
2022/05/26 07:06:48;;;;;;;5.90;1.10;;;;;;;27.13;85.70;95611.84;5094702;28;20905;-53
2022/05/26 07:09:19;;;;;;;0.60;0.60;;;;;;;27.54;85.22;95643.56;5094676;28;20446;-53
2022/05/26 07:11:47;;;;;;;0.73;0.73;;;;;;;27.82;90.74;95646.63;5094510;28;20601;-54
2022/05/26 07:14:16;;;;;;;0.80;0.80;;;;;;;27.51;91.26;95639.63;5094795;28;20943;-54
2022/05/26 07:16:45;;;;;;;0.73;0.73;;;;;;;27.68;94.48;95633.63;5094382;28;20471;-54
2022/05/26 07:19:14;;;;;;;1.63;1.53;;;;;;;27.75;82.71;95643.03;5094408;28;20432;-54
2022/05/26 07:21:45;;;;;;;1.07;0.83;;;;;;;27.71;88.38;95589.31;5093734;28;20577;-54
2022/05/26 07:24:19;;;;;;;0.40;0.40;;;;;;;28.06;78.80;95629.00;5094499;28;20527;-55
2022/05/26 07:26:49;;;;;;;0.80;0.80;;;;;;;28.30;80.13;95626.56;5094181;28;20433;-53
2022/05/26 07:29:18;;;;;;;1.50;1.40;;;;;;;28.59;79.97;95624.88;5094241;28;20456;-53
2022/05/26 07:31:47;;;;;;;1.30;1.00;;;;;;;28.40;72.92;95627.81;5093966;28;20507;-53
2022/05/26 07:34:18;;;;;;;1.33;0.70;;;;;;;28.27;71.51;95613.69;5094250;28;20425;-53
2022/05/26 07:42:23;;;;;;;0.87;0.80;;;;;;;28.32;70.93;95632.41;5093928;28;20460;-53
2022/05/26 07:44:54;;;;;;;0.87;0.80;;;;;;;28.78;68.60;95618.44;5093917;28;20463;-53
2022/05/26 07:47:23;;;;;;;0.77;0.77;;;;;;;29.41;64.63;95632.53;5094198;28;20752;-52
2022/05/26 07:49:52;;;;;;;0.47;0.40;;;;;;;29.91;63.19;95621.84;5094115;28;20516;-52
2022/05/26 07:52:21;;;;;;;0.90;0.80;;;;;;;30.04;63.27;95623.84;5093723;28;20471;-53
2022/05/26 07:54:50;;;;;;;0.60;0.60;;;;;;;29.95;63.42;95598.84;5093734;28;20497;-52
2022/05/26 07:57:23;;;;;;;1.33;1.23;;;;;;;30.77;60.21;95622.41;5093737;28;20993;-53
2022/05/26 07:59:53;;;;;;;1.20;1.10;;;;;;;30.18;61.78;95550.03;5093925;28;20499;-53
2022/05/26 08:02:22;;;;;;;0.60;0.47;;;;;;;31.26;55.50;95621.63;5093833;28;20432;-53
2022/05/26 08:04:51;;;;;;;0.60;0.57;;;;;;;30.21;60.57;95621.56;5093649;28;20869;-53
2022/05/26 08:07:19;;;;;;;0.80;0.80;;;;;;;30.27;57.55;95625.47;5093284;28;20557;-54
2022/05/26 08:09:48;;;;;;;0.43;0.40;;;;;;;31.08;62.87;95614.59;5093786;28;20425;-53
2022/05/26 08:12:18;;;;;;;0.83;0.80;;;;;;;31.32;58.36;95620.03;5093530;28;20483;-53
2022/05/26 08:14:47;;;;;;;0.73;0.63;;;;;;;31.97;55.94;95618.66;5093388;28;20493;-53
2022/05/26 08:17:19;;;;;;;0.87;0.50;;;;;;;32.02;57.76;95612.78;5092854;28;20511;-53
2022/05/26 08:19:47;;;;;;;0.80;0.73;;;;;;;32.24;50.68;95618.91;5093447;28;20450;-53
2022/05/26 08:22:17;;;;;;;4.20;3.27;;;;;;;32.39;53.36;95607.47;5093464;28;20432;-53
2022/05/26 08:24:51;;;;;;;0.60;0.50;;;;;;;32.89;52.25;95598.88;5093126;28;20428;-53
2022/05/26 08:27:21;;;;;;;0.70;0.70;;;;;;;32.75;51.01;95594.28;5092989;28;20956;-53
2022/05/26 08:29:49;;;;;;;1.20;1.10;;;;;;;32.60;57.89;95596.38;5093343;28;20463;-53
2022/05/26 08:32:19;;;;;;;0.60;0.40;;;;;;;32.80;50.32;95552.66;5092885;28;20884;-53
2022/05/26 08:34:49;;;;;;;1.07;1.03;;;;;;;33.15;52.67;95593.56;5092894;28;20785;-53
2022/05/26 08:37:20;;;;;;;0.67;0.67;;;;;;;32.96;58.24;95585.09;5093254;28;20424;-53
2022/05/26 08:39:49;;;;;;;3.17;0.80;;;;;;;33.32;58.12;95589.03;5093172;28;20495;-53
2022/05/26 08:42:24;;;;;;;1.10;0.57;;;;;;;33.05;46.71;95593.66;5092401;28;20440;-53
2022/05/26 08:44:55;;;;;;;4.13;0.90;;;;;;;33.08;46.28;95590.09;5092779;28;20466;-53
2022/05/26 08:47:28;;;;;;;1.13;1.13;;;;;;;33.24;47.01;95584.84;5093113;28;20861;-53
2022/05/26 08:50:02;;;;;;;0.60;0.60;;;;;;;33.03;52.32;95585.81;5092866;28;20857;-53
2022/05/26 08:52:35;;;;;;;0.70;0.70;;;;;;;33.52;50.92;95592.75;5092882;28;20498;-53
2022/05/26 08:55:08;;;;;;;0.90;0.90;;;;;;;33.43;47.76;95583.44;5092543;28;20428;-52
2022/05/26 08:57:42;;;;;;;0.53;0.50;;;;;;;33.79;55.62;95590.13;5092636;28;20435;-52
2022/05/26 09:00:13;;;;;;;0.87;0.70;;;;;;;33.53;45.39;95547.59;5092849;28;20427;-52
2022/05/26 09:02:42;;;;;;;0.63;0.40;;;;;;;33.90;43.16;95567.97;5092706;28;20553;-52
2022/05/26 09:05:14;;;;;;;0.57;0.57;;;;;;;34.31;46.36;95571.34;5092721;28;20439;-52
2022/05/26 09:13:35;;;;;;;2.23;0.40;;;;;;;34.78;41.76;95573.00;5074591;28;20514;-52
2022/05/26 09:16:06;;;;;;;0.60;0.53;;;;;;;35.40;42.58;95566.75;5092663;28;20459;-52
2022/05/26 09:18:35;;;;;;;0.63;0.60;;;;;;;35.44;43.40;95569.47;5091470;28;20463;-52
2022/05/26 09:21:21;;;;;;;2.40;0.47;;;;;;;36.10;40.92;95563.81;5092159;28;20428;-52
2022/05/26 09:23:50;;;;;;;0.70;0.50;;;;;;;35.03;39.99;95545.00;5092163;28;20432;-52
2022/05/26 09:26:20;;;;;;;0.53;0.50;;;;;;;35.70;41.42;95569.34;5092000;28;20792;-52
2022/05/26 09:28:51;;;;;;;0.60;0.60;;;;;;;35.69;38.11;95564.25;5092467;28;20428;-52
2022/05/26 09:31:23;;;;;;;0.50;0.50;;;;;;;35.43;36.74;95557.66;5092077;28;20232;-52
2022/05/26 09:34:04;;;;;;;0.87;0.87;;;;;;;35.28;36.08;95556.38;5092403;28;20267;-52
2022/05/26 09:36:38;;;;;;;0.70;0.70;;;;;;;35.18;34.99;95556.56;5092044;28;20646;-52
2022/05/26 09:39:07;;;;;;;1.80;1.70;;;;;;;35.89;36.13;95559.50;5091844;28;20463;-52
2022/05/26 09:41:39;;;;;;;0.40;0.40;;;;;;;36.38;32.42;95565.13;5092219;28;20268;-53
2022/05/26 09:44:29;;;;;;;3.60;0.73;;;;;;;36.57;31.85;95544.97;5091934;28;21001;-53
2022/05/26 09:46:59;;;;;;;0.77;0.47;;;;;;;37.26;30.26;95547.16;5091899;28;20273;-54
2022/05/26 09:49:36;;;;;;;0.70;0.67;;;;;;;37.88;32.44;95542.28;5091963;28;20229;-54
2022/05/26 09:52:11;;;;;;;0.40;0.40;;;;;;;38.29;32.65;95544.97;5092096;28;20238;-53
2022/05/26 09:54:40;;;;;;;0.40;0.40;;;;;;;38.30;33.43;95535.50;5091789;28;20189;-53
2022/05/26 09:57:20;;;;;;;1.00;1.00;;;;;;;37.74;33.25;95515.00;5092069;28;20183;-54
2022/05/26 09:59:49;;;;;;;0.50;0.50;;;;;;;37.73;30.75;95539.13;5091835;28;20277;-54
2022/05/26 10:02:24;;;;;;;1.63;1.53;;;;;;;38.26;31.22;95532.00;5091859;28;20226;-54
2022/05/26 10:05:01;;;;;;;1.17;1.07;;;;;;;37.77;31.91;95534.28;5091816;28;20236;-54
2022/05/26 10:07:49;;;;;;;0.50;0.50;;;;;;;37.98;34.76;95541.19;5091761;28;20186;-54
2022/05/26 10:10:23;;;;;;;0.50;0.47;;;;;;;37.83;30.11;95537.25;5091709;28;20228;-54
2022/05/26 10:13:07;;;;;;;0.40;0.30;;;;;;;38.00;30.52;95531.22;5090863;28;20258;-54
2022/05/26 10:15:48;;;;;;;2.15;0.73;;;;;;;37.81;29.42;95531.41;5091646;28;20199;-54
2022/05/26 10:18:42;;;;;;;0.75;0.50;;;;;;;38.25;24.31;95518.63;5091319;28;20265;-55
2022/05/26 10:21:16;;;;;;;1.58;0.30;;;;;;;38.60;21.88;95534.91;5091260;28;20675;-54
2022/05/26 10:24:23;;;;;;;0.57;0.35;;;;;;;38.94;19.97;95522.34;5091575;28;20232;-52
2022/05/26 10:26:59;;;;;;;0.40;0.32;;;;;;;38.75;20.43;95529.69;5069872;28;20276;-55
2022/05/26 10:29:45;;;;;;;0.40;0.40;;;;;;;38.88;19.71;95529.66;5093357;28;20217;-54
2022/05/26 10:32:26;;;;;;;0.40;0.40;;;;;;;39.53;20.46;95526.97;5095357;28;20225;-55
2022/05/26 10:35:07;;;;;;;0.40;0.40;;;;;;;39.94;21.72;95529.44;5095573;28;20230;-54
2022/05/26 10:37:49;;;;;;;2.42;0.55;;;;;;;39.31;20.63;95521.44;5095399;28;20187;-55
2022/05/26 10:40:31;;;;;;;0.30;0.30;;;;;;;39.63;21.68;95515.53;5095550;28;20581;-55
2022/05/26 10:43:06;;;;;;;0.40;0.40;;;;;;;39.86;21.96;95490.06;5095474;28;20285;-55
2022/05/26 10:45:39;;;;;;;0.30;0.20;;;;;;;40.49;20.30;95499.91;5095407;28;20192;-55
2022/05/26 10:48:17;;;;;;;0.50;0.50;;;;;;;40.51;20.18;95503.00;5095128;28;20231;-55
2022/05/26 10:50:51;;;;;;;0.30;0.30;;;;;;;40.51;21.51;95466.88;5095041;28;20186;-54
2022/05/26 10:53:29;;;;;;;0.30;0.30;;;;;;;40.14;21.63;95457.66;5095195;28;20296;-55
2022/05/26 10:56:10;;;;;;;0.40;0.40;;;;;;;39.49;22.94;95495.81;5094987;28;20186;-55
2022/05/26 10:58:44;;;;;;;0.30;0.20;;;;;;;38.00;20.38;95495.25;5094612;28;20185;-55
2022/05/26 11:01:18;;;;;;;0.40;0.40;;;;;;;37.76;19.80;95495.97;5094928;28;20299;-55
2022/05/26 11:03:50;;;;;;;0.40;0.40;;;;;;;38.16;19.21;95491.59;5094981;28;20189;-54
2022/05/26 11:06:25;;;;;;;0.50;0.40;;;;;;;37.56;19.29;95476.81;5094820;28;20626;-54
2022/05/26 11:09:00;;;;;;;0.30;0.30;;;;;;;38.85;20.52;95492.53;5094634;28;20237;-54
2022/05/26 11:11:36;;;;;;;0.55;0.30;;;;;;;38.07;20.11;95449.97;5094639;28;20598;-55
2022/05/26 11:14:09;;;;;;;0.50;0.30;;;;;;;38.20;20.06;95458.25;5094788;28;20631;-55
2022/05/26 11:19:51;;;;;;;0.30;0.30;;;;;;;38.85;20.98;95380.88;5051706;28;20250;-56
2022/05/26 11:22:19;;;;;;;0.40;0.30;;;;;;;38.22;19.18;95473.22;5051969;28;20222;-56
2022/05/26 11:24:49;;;;;;;0.52;0.40;;;;;;;39.05;20.37;95464.50;5072793;28;20284;-55
2022/05/26 11:27:23;;;;;;;0.20;0.20;;;;;;;38.71;20.31;95376.63;5094597;28;20697;-56
2022/05/26 11:29:56;;;;;;;0.75;0.30;;;;;;;37.67;19.80;95463.44;5094258;28;20189;-56
2022/05/26 11:38:16;;;;;;;2.95;1.10;;;;;;;37.59;20.85;95447.50;5093987;28;20263;-55
2022/05/26 11:40:47;;;;;;;0.40;0.40;;;;;;;37.49;21.81;95458.44;5092808;28;20672;-54
2022/05/26 11:43:26;;;;;;;0.40;0.25;;;;;;;37.30;23.52;95458.56;5094090;28;20526;-54
2022/05/26 11:45:55;;;;;;;0.30;0.30;;;;;;;37.27;22.92;95457.47;5093972;28;20275;-54
2022/05/26 11:48:43;;;;;;;0.30;0.30;;;;;;;36.60;21.06;95456.53;5093614;28;20193;-54
2022/05/26 11:51:31;;;;;;;0.40;0.35;;;;;;;37.32;21.41;95451.38;5093753;28;20187;-54
2022/05/26 11:54:00;;;;;;;0.52;0.52;;;;;;;37.15;21.67;95452.69;5093572;28;20383;-54
2022/05/26 11:56:53;;;;;;;0.30;0.30;;;;;;;38.21;20.58;95441.19;5093700;28;20798;-55
2022/05/26 11:59:47;;;;;;;0.30;0.30;;;;;;;38.87;19.75;95442.97;5093769;28;20231;-55
2022/05/26 12:02:31;;;;;;;1.23;0.70;;;;;;;37.85;19.83;95422.19;5093950;28;20251;-55
2022/05/26 12:05:33;;;;;;;0.43;0.30;;;;;;;38.63;19.34;95448.09;5093522;28;20238;-55
2022/05/26 12:08:06;;;;;;;0.30;0.30;;;;;;;38.90;18.82;95435.75;5093488;28;20236;-55
2022/05/26 12:10:41;;;;;;;0.50;0.50;;;;;;;38.11;20.70;95445.88;5093607;28;20718;-55
2022/05/26 12:13:34;;;;;;;0.38;0.30;;;;;;;38.53;22.16;95396.59;5093339;28;20273;-55
2022/05/26 12:16:26;;;;;;;0.63;0.43;;;;;;;38.70;22.57;95442.34;5093601;28;20182;-54
2022/05/26 12:18:58;;;;;;;0.30;0.30;;;;;;;38.79;21.00;95436.13;5090895;28;20248;-55
2022/05/26 12:21:46;;;;;;;0.30;0.30;;;;;;;38.80;21.54;95431.34;5093169;28;20649;-55
2022/05/26 12:24:51;;;;;;;0.50;0.30;;;;;;;39.10;22.34;95430.66;5093856;28;20255;-55
2022/05/26 12:27:57;;;;;;;0.63;0.60;;;;;;;39.21;22.38;95420.00;5093059;28;20189;-55
2022/05/26 12:30:40;;;;;;;0.30;0.25;;;;;;;39.58;20.05;95420.97;5093161;28;20731;-55
2022/05/26 12:33:36;;;;;;;0.57;0.50;;;;;;;40.03;21.20;95415.63;5093044;28;20278;-55
2022/05/26 12:36:16;;;;;;;0.30;0.20;;;;;;;39.25;19.35;95413.06;5092918;28;20642;-55
2022/05/26 12:39:00;;;;;;;0.40;0.38;;;;;;;38.55;20.20;95300.00;5092792;28;20286;-55